Time;durP1;ratioP1;P1;durP2;ratioP2;P2;SDS_P1;SDS_P2;PMS_P1;PMS_P2;Temp;Humidity;BMP_temperature;BMP_pressure;BME280_temperature;BME280_humidity;BME280_pressure;Samples;Min_cycle;Max_cycle;Signal;HPM_P1;HPM_P2
2022/07/25 00:00:58;;;;;;;11.17;10.17;;;26.10;63.30;;;;;;4993850;28;20391;-70
2022/07/25 00:03:24;;;;;;;11.57;10.57;;;26.10;63.40;;;;;;4992618;28;20501;-70
2022/07/25 00:05:50;;;;;;;11.63;10.52;;;26.10;63.30;;;;;;4994069;28;20441;-70
2022/07/25 00:08:17;;;;;;;11.82;10.73;;;26.10;63.40;;;;;;4993991;28;20405;-70
2022/07/25 00:10:43;;;;;;;11.50;10.50;;;26.10;63.30;;;;;;4993441;28;20391;-70
2022/07/25 00:13:08;;;;;;;11.48;10.48;;;26.10;63.30;;;;;;4993942;28;20402;-70
2022/07/25 00:15:34;;;;;;;11.90;10.80;;;26.10;63.30;;;;;;4993754;28;20827;-70
2022/07/25 00:18:00;;;;;;;11.73;10.63;;;26.10;63.30;;;;;;4993632;28;20821;-70
2022/07/25 00:20:25;;;;;;;11.50;10.40;;;26.10;63.30;;;;;;4993883;28;20382;-70
2022/07/25 00:22:51;;;;;;;11.60;10.57;;;26.10;63.30;;;;;;4993466;28;20402;-71
2022/07/25 00:25:16;;;;;;;11.17;10.17;;;26.10;63.30;;;;;;4993622;28;20485;-71
2022/07/25 00:27:42;;;;;;;11.57;10.53;;;26.10;63.30;;;;;;4993403;28;20495;-70
2022/07/25 00:30:08;;;;;;;11.07;10.10;;;26.10;63.30;;;;;;4993749;28;20401;-70
2022/07/25 00:32:34;;;;;;;11.52;10.52;;;26.10;63.20;;;;;;4993254;28;20402;-70
2022/07/25 00:35:00;;;;;;;11.05;10.05;;;26.00;63.20;;;;;;4992731;28;20391;-70
2022/07/25 00:37:25;;;;;;;12.00;10.90;;;26.00;63.20;;;;;;4986937;28;20446;-71
2022/07/25 00:39:51;;;;;;;11.10;10.15;;;26.00;63.20;;;;;;4992265;28;20433;-70
2022/07/25 00:42:17;;;;;;;10.50;9.60;;;26.00;63.20;;;;;;4991973;28;20442;-70
2022/07/25 00:44:42;;;;;;;11.23;10.23;;;26.00;63.20;;;;;;4984883;28;20561;-70
2022/07/25 00:47:08;;;;;;;11.40;10.40;;;26.10;63.30;;;;;;4992023;28;20398;-70
2022/07/25 00:49:34;;;;;;;11.50;10.45;;;26.00;63.10;;;;;;4992942;28;20484;-70
2022/07/25 00:52:00;;;;;;;11.70;10.70;;;26.00;63.20;;;;;;4993062;28;20398;-70
2022/07/25 00:54:26;;;;;;;11.13;10.13;;;26.00;63.10;;;;;;4992970;28;20394;-70
2022/07/25 00:56:51;;;;;;;11.27;10.20;;;26.00;63.10;;;;;;4991865;28;20406;-70
2022/07/25 00:59:17;;;;;;;11.43;10.32;;;26.00;63.10;;;;;;4992563;28;20406;-70
2022/07/25 01:01:46;;;;;;;11.67;10.57;;;26.00;63.10;;;;;;4991824;28;20402;-71
2022/07/25 01:04:12;;;;;;;11.15;10.15;;;26.00;63.20;;;;;;4991595;28;20398;-70
2022/07/25 01:06:38;;;;;;;11.85;10.82;;;26.00;63.10;;;;;;4992277;28;20402;-70
2022/07/25 01:09:04;;;;;;;11.53;10.43;;;26.00;63.10;;;;;;4992659;28;20441;-70
2022/07/25 01:11:30;;;;;;;11.20;10.20;;;26.00;63.10;;;;;;4992745;28;20868;-70
2022/07/25 01:13:55;;;;;;;11.60;10.50;;;26.00;63.70;;;;;;4991299;28;20399;-70
2022/07/25 01:16:21;;;;;;;11.47;10.47;;;26.00;63.10;;;;;;4992513;28;20418;-70
2022/07/25 01:18:47;;;;;;;11.10;10.10;;;26.00;63.00;;;;;;4992084;28;20796;-70
2022/07/25 01:21:13;;;;;;;11.50;10.50;;;26.00;63.00;;;;;;4992446;28;20418;-70
2022/07/25 01:23:39;;;;;;;11.52;10.52;;;26.00;63.00;;;;;;4976529;28;20395;-70
2022/07/25 01:26:05;;;;;;;11.70;10.60;;;26.00;63.00;;;;;;4992306;28;20445;-71
2022/07/25 01:28:30;;;;;;;11.33;10.33;;;26.00;63.10;;;;;;4989299;28;20418;-71
2022/07/25 01:30:56;;;;;;;11.30;10.30;;;26.00;63.10;;;;;;4984678;28;20396;-70
2022/07/25 01:33:22;;;;;;;11.68;10.60;;;26.00;63.00;;;;;;4992317;28;20394;-70
2022/07/25 01:35:49;;;;;;;11.73;10.70;;;26.00;63.00;;;;;;4992276;28;20425;-70
2022/07/25 01:38:15;;;;;;;11.32;10.32;;;26.00;63.00;;;;;;4991651;28;20434;-72
2022/07/25 01:40:41;;;;;;;11.70;10.70;;;26.00;63.00;;;;;;4991309;28;20445;-70
2022/07/25 01:43:07;;;;;;;11.23;10.13;;;26.00;63.00;;;;;;4990220;28;20915;-70
2022/07/25 01:45:33;;;;;;;11.48;10.48;;;26.00;63.00;;;;;;4990431;28;20402;-70
2022/07/25 01:47:59;;;;;;;11.05;10.10;;;26.00;63.00;;;;;;4988201;28;20406;-70
2022/07/25 01:50:25;;;;;;;11.38;10.32;;;26.00;63.60;;;;;;4988715;28;20402;-70
2022/07/25 01:52:50;;;;;;;11.13;10.13;;;26.00;63.00;;;;;;4991289;28;20398;-70
2022/07/25 01:55:17;;;;;;;11.70;10.70;;;25.90;62.90;;;;;;4991909;28;20485;-70
2022/07/25 01:57:43;;;;;;;11.40;10.40;;;26.00;63.00;;;;;;4991885;28;20465;-70
2022/07/25 02:00:12;;;;;;;11.55;10.55;;;25.90;62.90;;;;;;4991913;28;20426;-70
2022/07/25 02:02:38;;;;;;;11.23;10.23;;;25.90;62.90;;;;;;4991401;28;20395;-70
2022/07/25 02:05:05;;;;;;;11.65;10.55;;;26.00;63.00;;;;;;4991445;28;20390;-70
2022/07/25 02:07:30;;;;;;;11.70;10.60;;;25.90;62.90;;;;;;4991010;28;20730;-70
2022/07/25 02:09:56;;;;;;;11.40;10.40;;;25.90;62.90;;;;;;4991645;28;20394;-70
2022/07/25 02:12:21;;;;;;;11.50;10.50;;;25.90;62.90;;;;;;4991710;28;20411;-70
2022/07/25 02:14:47;;;;;;;11.80;10.80;;;25.90;62.90;;;;;;4995272;28;20393;-70
2022/07/25 02:17:13;;;;;;;11.38;10.38;;;25.90;62.90;;;;;;4995501;28;20421;-70
2022/07/25 02:19:38;;;;;;;11.68;10.57;;;25.90;62.90;;;;;;4995666;28;20873;-70
2022/07/25 02:22:04;;;;;;;10.60;9.70;;;25.90;62.90;;;;;;4995681;28;20405;-70
2022/07/25 02:24:30;;;;;;;11.38;10.38;;;26.00;62.90;;;;;;4994790;28;20398;-70
2022/07/25 02:26:55;;;;;;;11.75;10.75;;;25.90;62.80;;;;;;4995307;28;20418;-70
2022/07/25 02:29:21;;;;;;;11.03;10.03;;;25.90;62.80;;;;;;4995801;28;20398;-71
2022/07/25 02:31:47;;;;;;;11.38;10.32;;;25.90;62.80;;;;;;4995607;28;20409;-71
2022/07/25 02:34:12;;;;;;;11.43;10.43;;;25.90;62.80;;;;;;4995725;28;20390;-70
2022/07/25 02:36:38;;;;;;;10.93;9.93;;;25.90;62.80;;;;;;4995541;28;20476;-70
2022/07/25 02:39:04;;;;;;;10.82;9.82;;;25.90;62.80;;;;;;4995216;28;20792;-71
2022/07/25 02:41:30;;;;;;;11.47;10.37;;;25.90;62.80;;;;;;4995363;28;20514;-71
2022/07/25 02:43:55;;;;;;;11.02;10.02;;;25.90;62.80;;;;;;4994324;28;20391;-70
2022/07/25 02:46:21;;;;;;;11.20;10.20;;;25.90;62.70;;;;;;4995486;28;20771;-70
2022/07/25 02:48:47;;;;;;;11.20;10.20;;;25.90;62.80;;;;;;4995061;28;20760;-70
2022/07/25 02:51:12;;;;;;;10.73;9.80;;;25.90;62.80;;;;;;4995537;28;20398;-70
2022/07/25 02:53:38;;;;;;;11.60;10.60;;;25.90;62.80;;;;;;4995427;28;20443;-71
2022/07/25 02:56:04;;;;;;;11.30;10.30;;;25.90;62.80;;;;;;4993941;28;20463;-70
2022/07/25 02:58:30;;;;;;;11.00;10.00;;;25.90;62.70;;;;;;4994052;28;20391;-71
2022/07/25 03:00:55;;;;;;;11.20;10.20;;;25.90;62.70;;;;;;4993623;28;20402;-70
2022/07/25 03:03:21;;;;;;;11.05;10.05;;;25.80;62.70;;;;;;4995144;28;20386;-71
2022/07/25 03:05:47;;;;;;;10.80;9.80;;;25.80;62.60;;;;;;4993737;28;20399;-70
2022/07/25 03:08:12;;;;;;;10.80;9.80;;;25.80;62.70;;;;;;4993525;28;20406;-71
2022/07/25 03:10:38;;;;;;;10.70;9.77;;;25.90;63.50;;;;;;4993365;28;20885;-70
2022/07/25 03:13:03;;;;;;;12.35;11.15;;;25.90;64.60;;;;;;4994277;28;20423;-70
2022/07/25 03:15:29;;;;;;;11.93;10.63;;;25.90;64.60;;;;;;4993723;28;20395;-68
2022/07/25 03:17:55;;;;;;;13.95;12.55;;;25.90;64.00;;;;;;4993638;28;20429;-70
2022/07/25 03:20:20;;;;;;;14.10;12.30;;;25.90;66.90;;;;;;4994735;28;20452;-71
2022/07/25 03:22:46;;;;;;;13.27;11.97;;;26.00;65.50;;;;;;4994674;28;20540;-70
2022/07/25 03:25:12;;;;;;;13.05;11.65;;;26.00;66.60;;;;;;4992663;28;20402;-71
2022/07/25 03:27:37;;;;;;;12.05;10.90;;;26.00;66.80;;;;;;4994629;28;20410;-70
2022/07/25 03:30:03;;;;;;;12.13;10.87;;;26.00;66.70;;;;;;4993598;28;20482;-70
2022/07/25 03:32:29;;;;;;;12.20;10.90;;;26.10;66.70;;;;;;4993367;28;20762;-70
2022/07/25 03:34:54;;;;;;;12.80;10.90;;;26.10;66.70;;;;;;4993088;28;20433;-68
2022/07/25 03:37:20;;;;;;;13.07;10.77;;;26.10;66.60;;;;;;4994172;28;20477;-69
2022/07/25 03:39:46;;;;;;;12.07;10.77;;;26.10;66.90;;;;;;4993202;28;20391;-69
2022/07/25 03:42:11;;;;;;;11.95;10.68;;;26.10;65.40;;;;;;4991779;28;20433;-69
2022/07/25 03:44:37;;;;;;;12.00;10.90;;;26.00;66.40;;;;;;4994573;28;20394;-68
2022/07/25 03:47:04;;;;;;;12.82;10.95;;;26.10;66.50;;;;;;4993790;28;20386;-68
2022/07/25 03:49:30;;;;;;;12.05;10.10;;;26.20;66.50;;;;;;4994285;28;20794;-68
2022/07/25 03:51:55;;;;;;;12.73;10.37;;;26.10;65.40;;;;;;4994076;28;20477;-69
2022/07/25 03:54:21;;;;;;;11.70;10.52;;;26.10;65.40;;;;;;4994300;28;20375;-68
2022/07/25 03:56:49;;;;;;;11.50;10.40;;;26.10;65.40;;;;;;4993677;28;20794;-69
2022/07/25 03:59:17;;;;;;;11.40;10.27;;;26.00;65.20;;;;;;4994139;28;20383;-69
2022/07/25 04:01:45;;;;;;;11.40;10.13;;;26.00;64.80;;;;;;4994133;28;20754;-68
2022/07/25 04:04:11;;;;;;;12.45;10.90;;;26.00;64.70;;;;;;4992725;28;20908;-68
2022/07/25 04:06:37;;;;;;;13.88;12.48;;;26.00;64.30;;;;;;4994083;28;20401;-68
2022/07/25 04:09:03;;;;;;;13.57;12.18;;;26.00;64.20;;;;;;4993520;28;20938;-68
2022/07/25 04:11:29;;;;;;;15.73;12.50;;;26.00;64.00;;;;;;4993808;28;20510;-68
2022/07/25 04:13:56;;;;;;;15.35;12.82;;;26.00;63.20;;;;;;4993913;28;20398;-68
2022/07/25 04:16:22;;;;;;;14.75;13.25;;;25.90;63.30;;;;;;4993796;28;20391;-69
2022/07/25 04:18:47;;;;;;;14.52;13.02;;;25.90;63.10;;;;;;4993611;28;20464;-68
2022/07/25 04:21:13;;;;;;;14.70;13.17;;;25.90;63.10;;;;;;4993436;28;20481;-69
2022/07/25 04:23:39;;;;;;;15.65;13.50;;;25.90;62.90;;;;;;4993670;28;20394;-69
2022/07/25 04:26:05;;;;;;;15.03;13.43;;;25.90;62.80;;;;;;4993361;28;20482;-69
2022/07/25 04:28:31;;;;;;;14.20;12.70;;;25.90;62.50;;;;;;4993657;28;20402;-69
2022/07/25 04:30:57;;;;;;;14.82;13.32;;;25.90;62.60;;;;;;4993092;28;20394;-69
2022/07/25 04:33:23;;;;;;;15.07;13.57;;;25.90;62.50;;;;;;4993469;28;20397;-69
2022/07/25 04:35:49;;;;;;;14.80;13.40;;;25.90;62.30;;;;;;4993311;28;20398;-69
2022/07/25 04:38:14;;;;;;;15.07;13.47;;;25.80;61.80;;;;;;4993432;28;20509;-69
2022/07/25 04:40:40;;;;;;;14.90;13.30;;;25.80;61.80;;;;;;4993387;28;20390;-69
2022/07/25 04:43:07;;;;;;;14.45;13.05;;;25.80;61.80;;;;;;4992848;28;20445;-69
2022/07/25 04:45:33;;;;;;;14.60;13.10;;;25.80;61.80;;;;;;4993440;28;20873;-69
2022/07/25 04:47:59;;;;;;;15.10;13.63;;;25.80;61.70;;;;;;4993182;28;20485;-69
2022/07/25 04:50:25;;;;;;;14.57;13.07;;;25.80;61.90;;;;;;4993276;28;20518;-69
2022/07/25 04:52:51;;;;;;;14.15;12.85;;;25.80;61.90;;;;;;4992794;28;20395;-68
2022/07/25 04:55:17;;;;;;;13.80;12.40;;;25.80;61.80;;;;;;4993228;28;20398;-69
2022/07/25 04:57:42;;;;;;;13.18;11.98;;;25.80;61.80;;;;;;4993134;28;20698;-69
2022/07/25 05:00:09;;;;;;;14.60;12.98;;;25.80;61.90;;;;;;4993189;28;20480;-69
2022/07/25 05:02:35;;;;;;;13.27;11.95;;;25.80;62.10;;;;;;4993018;28;20884;-68
2022/07/25 05:05:02;;;;;;;14.10;12.70;;;25.80;62.10;;;;;;4992693;28;20877;-68
2022/07/25 05:07:27;;;;;;;14.27;12.87;;;25.80;62.20;;;;;;4993049;28;20482;-68
2022/07/25 05:09:53;;;;;;;14.95;13.38;;;25.80;61.90;;;;;;4992858;28;20405;-68
2022/07/25 05:12:19;;;;;;;15.90;13.33;;;25.80;61.70;;;;;;4992620;28;20403;-69
2022/07/25 05:14:45;;;;;;;15.98;13.93;;;25.70;61.70;;;;;;4991358;28;20386;-69
2022/07/25 05:17:10;;;;;;;16.17;14.27;;;25.60;61.50;;;;;;4992300;28;20426;-68
2022/07/25 05:19:36;;;;;;;16.43;14.33;;;25.60;61.60;;;;;;4992613;28;20395;-68
2022/07/25 05:22:02;;;;;;;17.17;15.00;;;25.60;61.90;;;;;;4992562;28;20509;-68
2022/07/25 05:24:28;;;;;;;16.92;15.10;;;25.60;62.10;;;;;;4992771;28;20398;-67
2022/07/25 05:26:53;;;;;;;16.97;15.13;;;25.50;62.30;;;;;;4991628;28;20414;-67
2022/07/25 05:29:19;;;;;;;16.83;15.13;;;25.40;62.70;;;;;;4992416;28;20391;-67
2022/07/25 05:31:45;;;;;;;17.75;15.32;;;25.40;62.80;;;;;;4991253;28;20425;-67
2022/07/25 05:34:11;;;;;;;16.47;14.80;;;25.40;62.80;;;;;;4992399;28;20394;-67
2022/07/25 05:36:36;;;;;;;15.25;13.75;;;25.40;62.70;;;;;;4992292;28;20403;-67
2022/07/25 05:39:02;;;;;;;15.70;14.03;;;25.50;62.80;;;;;;4991908;28;20873;-67
2022/07/25 05:41:28;;;;;;;15.50;13.93;;;25.50;62.90;;;;;;4992230;28;20391;-67
2022/07/25 05:43:54;;;;;;;16.50;14.80;;;25.50;63.20;;;;;;4992067;28;20402;-67
2022/07/25 05:46:19;;;;;;;15.57;13.88;;;25.50;64.00;;;;;;4992373;28;20781;-67
2022/07/25 05:48:45;;;;;;;16.10;13.30;;;25.50;63.00;;;;;;4990196;28;20449;-68
2022/07/25 05:51:11;;;;;;;17.27;14.60;;;25.50;63.60;;;;;;4990998;28;20895;-67
2022/07/25 05:53:37;;;;;;;16.92;14.10;;;25.50;63.20;;;;;;4991967;28;20398;-68
2022/07/25 05:56:03;;;;;;;15.65;14.00;;;25.60;63.50;;;;;;4992032;28;20387;-67
2022/07/25 05:58:29;;;;;;;15.18;13.40;;;25.60;63.00;;;;;;4990236;28;20427;-67
2022/07/25 06:00:54;;;;;;;15.88;13.48;;;25.60;63.10;;;;;;4989323;28;20417;-67
2022/07/25 06:03:20;;;;;;;16.10;13.30;;;25.60;63.50;;;;;;4991882;28;20413;-68
2022/07/25 06:05:46;;;;;;;15.10;13.60;;;25.60;63.20;;;;;;4990664;28;20387;-68
2022/07/25 06:08:15;;;;;;;15.68;13.38;;;25.60;63.20;;;;;;4990829;28;20425;-67
2022/07/25 06:10:41;;;;;;;17.27;13.07;;;25.60;63.30;;;;;;4991667;28;20493;-68
2022/07/25 06:13:07;;;;;;;15.23;13.35;;;25.60;63.20;;;;;;4991594;28;20394;-68
2022/07/25 06:15:33;;;;;;;15.93;12.68;;;25.60;63.30;;;;;;4991803;28;20457;-68
2022/07/25 06:17:59;;;;;;;14.80;13.30;;;25.60;63.20;;;;;;4991844;28;20517;-68
2022/07/25 06:20:25;;;;;;;14.37;12.87;;;25.60;63.20;;;;;;4990527;28;20475;-68
2022/07/25 06:22:51;;;;;;;14.32;12.82;;;25.60;63.30;;;;;;4991771;28;20861;-68
2022/07/25 06:25:17;;;;;;;14.05;12.55;;;25.60;63.20;;;;;;4990334;28;20441;-68
2022/07/25 06:27:43;;;;;;;13.70;12.27;;;25.70;63.30;;;;;;4990445;28;20513;-68
2022/07/25 06:30:11;;;;;;;14.53;13.10;;;25.70;63.50;;;;;;4991968;28;20478;-69
2022/07/25 06:32:37;;;;;;;15.13;12.75;;;25.70;64.10;;;;;;4991966;28;20394;-68
2022/07/25 06:35:03;;;;;;;14.83;12.93;;;25.80;64.20;;;;;;4991365;28;20453;-68
2022/07/25 06:37:29;;;;;;;15.35;12.82;;;25.80;64.00;;;;;;4991747;28;20418;-70
2022/07/25 06:39:54;;;;;;;14.02;12.63;;;25.80;63.90;;;;;;4990768;28;20724;-69
2022/07/25 06:42:20;;;;;;;15.80;12.90;;;25.80;64.10;;;;;;4990758;28;20472;-68
2022/07/25 06:44:46;;;;;;;15.10;13.50;;;25.80;64.10;;;;;;4991717;28;20406;-69
2022/07/25 06:47:12;;;;;;;13.70;12.30;;;25.80;64.10;;;;;;4990105;28;20395;-68
2022/07/25 06:49:38;;;;;;;14.23;12.73;;;25.90;64.30;;;;;;4991853;28;20460;-68
2022/07/25 06:52:05;;;;;;;14.73;12.35;;;25.90;64.40;;;;;;4990352;28;20398;-68
2022/07/25 06:54:31;;;;;;;14.35;12.95;;;25.90;64.20;;;;;;4990523;28;20525;-69
2022/07/25 06:56:57;;;;;;;13.38;12.07;;;25.90;64.50;;;;;;4991142;28;20505;-68
2022/07/25 06:59:23;;;;;;;13.23;11.87;;;25.80;64.10;;;;;;4993270;28;20473;-68
2022/07/25 07:01:49;;;;;;;14.13;12.30;;;25.90;63.90;;;;;;4995233;28;20398;-69
2022/07/25 07:04:14;;;;;;;13.80;12.40;;;25.90;63.80;;;;;;4994894;28;20395;-69
2022/07/25 07:06:40;;;;;;;13.50;12.10;;;25.90;63.70;;;;;;4995242;28;20394;-69
2022/07/25 07:09:06;;;;;;;13.10;11.80;;;25.90;63.60;;;;;;4991590;28;21124;-68
2022/07/25 07:11:33;;;;;;;12.45;11.25;;;25.80;63.50;;;;;;4993229;28;20485;-68
2022/07/25 07:14:01;;;;;;;13.00;11.73;;;25.80;63.40;;;;;;4990765;28;20398;-69
2022/07/25 07:16:28;;;;;;;13.07;11.65;;;25.80;64.10;;;;;;4994798;28;20967;-69
2022/07/25 07:18:53;;;;;;;12.63;11.50;;;25.80;63.40;;;;;;4979444;28;20416;-69
2022/07/25 07:21:19;;;;;;;12.80;11.60;;;25.80;63.40;;;;;;4994567;28;20824;-69
2022/07/25 07:23:45;;;;;;;12.83;11.60;;;25.90;63.40;;;;;;4994755;28;20401;-69
2022/07/25 07:26:11;;;;;;;12.30;11.13;;;25.80;63.40;;;;;;4994603;28;20485;-69
2022/07/25 07:28:37;;;;;;;13.07;11.77;;;25.80;63.30;;;;;;4991244;28;20833;-69
2022/07/25 07:31:03;;;;;;;12.67;11.47;;;25.80;63.20;;;;;;4989119;28;20485;-69
2022/07/25 07:33:29;;;;;;;12.30;11.10;;;25.90;63.30;;;;;;4994547;28;20441;-67
2022/07/25 07:35:55;;;;;;;13.40;12.20;;;25.90;63.60;;;;;;4993001;28;20486;-69
2022/07/25 07:38:22;;;;;;;12.40;11.10;;;25.90;63.90;;;;;;4994477;28;20433;-68
2022/07/25 07:40:48;;;;;;;15.18;12.38;;;25.90;64.30;;;;;;4993445;28;20749;-68
2022/07/25 07:43:14;;;;;;;14.50;13.00;;;25.90;65.80;;;;;;4993779;28;20472;-69
2022/07/25 07:45:40;;;;;;;13.52;12.15;;;25.90;67.00;;;;;;4993931;28;20473;-68
2022/07/25 07:48:06;;;;;;;12.70;11.43;;;26.00;66.10;;;;;;4993445;28;20403;-68
2022/07/25 07:50:32;;;;;;;12.48;11.18;;;25.90;65.70;;;;;;4993351;28;20405;-69
2022/07/25 07:52:57;;;;;;;13.05;11.18;;;26.00;65.20;;;;;;4992931;28;20403;-68
2022/07/25 07:58:09;;;;;;;12.73;11.40;;;26.00;65.00;;;;;;4986083;28;20433;-69
2022/07/25 08:00:37;;;;;;;13.93;11.90;;;26.00;64.50;;;;;;4988719;28;20398;-69
2022/07/25 08:03:05;;;;;;;14.60;11.60;;;26.00;65.00;;;;;;4987602;28;20415;-68
2022/07/25 08:05:37;;;;;;;14.77;11.68;;;26.00;64.90;;;;;;4992729;28;20426;-69
2022/07/25 08:08:03;;;;;;;13.65;11.35;;;26.00;65.10;;;;;;4992744;28;20398;-69
2022/07/25 08:10:31;;;;;;;14.02;11.52;;;26.00;64.80;;;;;;4992338;28;20413;-68
2022/07/25 08:12:58;;;;;;;13.43;11.32;;;26.00;64.80;;;;;;4992745;28;20391;-69
2022/07/25 08:15:25;;;;;;;13.13;11.77;;;26.00;64.50;;;;;;4992385;28;20398;-69
2022/07/25 08:17:51;;;;;;;13.00;11.10;;;26.00;64.50;;;;;;4991160;28;20430;-69
2022/07/25 08:20:19;;;;;;;12.52;11.23;;;26.00;64.50;;;;;;4990316;28;20406;-69
2022/07/25 08:22:47;;;;;;;13.23;11.68;;;26.00;64.50;;;;;;4987659;28;20404;-69
2022/07/25 08:25:19;;;;;;;12.00;10.77;;;26.10;64.40;;;;;;4991393;28;20386;-69
2022/07/25 08:27:45;;;;;;;13.00;11.63;;;26.00;64.30;;;;;;4988777;28;20415;-69
2022/07/25 08:30:12;;;;;;;13.88;11.10;;;26.10;64.60;;;;;;4991096;28;20804;-69
2022/07/25 08:32:48;;;;;;;12.13;10.82;;;26.10;64.60;;;;;;4988149;28;20483;-68
2022/07/25 08:35:14;;;;;;;13.93;10.77;;;26.10;64.40;;;;;;4990089;28;20398;-70
2022/07/25 08:37:40;;;;;;;12.00;10.70;;;26.10;64.40;;;;;;4989101;28;21171;-69
2022/07/25 08:40:06;;;;;;;11.70;10.50;;;26.10;64.30;;;;;;4992036;28;20390;-69
2022/07/25 08:42:33;;;;;;;12.67;11.20;;;26.10;64.10;;;;;;4991959;28;20394;-69
2022/07/25 08:45:02;;;;;;;11.25;10.15;;;26.10;64.00;;;;;;4987986;28;20406;-69
2022/07/25 08:47:28;;;;;;;12.68;10.73;;;26.10;64.00;;;;;;4988689;28;20403;-69
2022/07/25 08:49:55;;;;;;;11.93;10.80;;;26.10;63.90;;;;;;4991530;28;20796;-69
2022/07/25 08:52:22;;;;;;;11.30;10.13;;;26.10;63.90;;;;;;4991821;28;20441;-69
2022/07/25 08:54:49;;;;;;;11.45;10.25;;;26.10;63.80;;;;;;4989139;28;20394;-68
2022/07/25 08:57:16;;;;;;;11.70;10.52;;;26.10;63.80;;;;;;4991215;28;20405;-68
2022/07/25 08:59:42;;;;;;;12.00;10.75;;;26.10;63.70;;;;;;4991741;28;20394;-69
2022/07/25 09:02:11;;;;;;;11.35;10.25;;;26.10;63.60;;;;;;4989083;28;20481;-69
2022/07/25 09:04:37;;;;;;;12.35;11.15;;;26.10;63.60;;;;;;4991614;28;20403;-68
2022/07/25 09:07:03;;;;;;;12.27;11.07;;;26.20;63.50;;;;;;4989958;28;20403;-69
2022/07/25 09:09:37;;;;;;;12.13;10.40;;;26.10;63.50;;;;;;4990274;28;20406;-69
2022/07/25 09:12:04;;;;;;;12.70;10.48;;;26.10;63.20;;;;;;4990027;28;20410;-69
2022/07/25 09:14:39;;;;;;;11.30;10.15;;;26.10;63.20;;;;;;4989601;28;20490;-69
2022/07/25 09:17:06;;;;;;;12.00;10.80;;;26.10;63.30;;;;;;4985716;28;20435;-69
2022/07/25 09:19:32;;;;;;;11.75;10.65;;;26.10;63.30;;;;;;4991289;28;20486;-69
2022/07/25 09:22:01;;;;;;;11.32;10.23;;;26.10;63.30;;;;;;4988750;28;20501;-69
2022/07/25 09:24:28;;;;;;;11.50;10.45;;;26.10;63.20;;;;;;4994344;28;20918;-69
2022/07/25 09:26:57;;;;;;;11.32;10.23;;;26.10;63.20;;;;;;4988461;28;20485;-69
2022/07/25 09:29:33;;;;;;;11.48;10.38;;;26.20;63.30;;;;;;4990633;28;20403;-69
2022/07/25 09:32:00;;;;;;;11.15;10.05;;;26.20;63.20;;;;;;4988572;28;20407;-69
2022/07/25 09:34:37;;;;;;;11.68;10.57;;;26.10;63.00;;;;;;4991258;28;20413;-69
2022/07/25 09:37:05;;;;;;;11.45;10.32;;;26.20;63.00;;;;;;4989404;28;20776;-69
2022/07/25 09:39:33;;;;;;;11.60;10.50;;;26.20;62.90;;;;;;4990769;28;20407;-69
2022/07/25 09:41:59;;;;;;;11.45;10.35;;;26.20;62.90;;;;;;4991114;28;20387;-69
2022/07/25 09:44:31;;;;;;;11.07;10.07;;;26.20;63.10;;;;;;4989365;28;20402;-70
2022/07/25 09:47:00;;;;;;;11.38;10.27;;;26.20;63.00;;;;;;4988845;28;20390;-69
2022/07/25 09:49:43;;;;;;;11.40;10.30;;;26.20;63.10;;;;;;4988086;28;20399;-69
2022/07/25 09:52:10;;;;;;;11.20;10.10;;;26.20;62.90;;;;;;4988453;28;20493;-68
2022/07/25 09:54:40;;;;;;;11.73;10.48;;;26.20;62.80;;;;;;4990889;28;20817;-68
2022/07/25 09:57:05;;;;;;;12.05;10.38;;;26.20;63.00;;;;;;4990135;28;20419;-68
2022/07/25 09:59:34;;;;;;;12.15;10.95;;;26.20;62.90;;;;;;4990537;28;20428;-69
2022/07/25 10:02:11;;;;;;;11.48;10.35;;;26.20;64.20;;;;;;4988440;28;20477;-69
2022/07/25 10:04:46;;;;;;;12.02;10.55;;;26.20;64.20;;;;;;4990885;28;20426;-68
2022/07/25 10:07:14;;;;;;;11.73;10.53;;;26.30;64.40;;;;;;4989999;28;20445;-69
2022/07/25 10:09:53;;;;;;;11.35;10.15;;;26.40;65.00;;;;;;4988200;28;20402;-68
2022/07/25 10:12:23;;;;;;;12.05;10.80;;;26.40;64.50;;;;;;4990722;28;20382;-69
2022/07/25 10:15:12;;;;;;;12.70;10.10;;;26.40;64.70;;;;;;4989676;28;20812;-69
2022/07/25 10:17:39;;;;;;;13.30;10.70;;;26.40;64.80;;;;;;4990052;28;20868;-68
2022/07/25 10:20:07;;;;;;;12.30;11.10;;;26.40;64.90;;;;;;4989261;28;20980;-70
2022/07/25 10:22:40;;;;;;;12.85;10.80;;;26.40;64.70;;;;;;4990622;28;20428;-69
2022/07/25 10:25:16;;;;;;;11.80;10.32;;;26.40;65.10;;;;;;4987447;28;20750;-68
2022/07/25 10:27:47;;;;;;;11.35;10.20;;;26.40;64.10;;;;;;4985423;28;20418;-70
2022/07/25 10:30:27;;;;;;;11.75;10.60;;;26.40;64.00;;;;;;4987846;28;20399;-70
2022/07/25 10:32:57;;;;;;;11.68;10.57;;;26.40;64.00;;;;;;4989408;28;20892;-69
2022/07/25 10:35:24;;;;;;;11.88;10.68;;;26.40;64.00;;;;;;4991159;28;20406;-69
2022/07/25 10:37:52;;;;;;;12.00;10.80;;;26.30;63.90;;;;;;4994406;28;20418;-68
2022/07/25 10:40:29;;;;;;;11.30;10.30;;;26.30;63.80;;;;;;4990192;28;20398;-69
2022/07/25 10:43:17;;;;;;;11.55;10.40;;;26.30;63.70;;;;;;4992595;28;20460;-69
2022/07/25 10:45:47;;;;;;;11.65;10.52;;;26.30;63.50;;;;;;4988149;28;20406;-70
2022/07/25 10:48:28;;;;;;;11.97;10.77;;;26.30;63.50;;;;;;4990371;28;20402;-69
2022/07/25 10:51:06;;;;;;;11.52;10.43;;;26.30;63.50;;;;;;4988868;28;20488;-69
2022/07/25 10:53:35;;;;;;;12.10;11.00;;;26.30;63.40;;;;;;4991484;28;20472;-68
2022/07/25 10:56:13;;;;;;;11.00;10.00;;;26.30;63.40;;;;;;4987197;28;20437;-69
2022/07/25 10:58:49;;;;;;;11.63;10.55;;;26.30;63.30;;;;;;4990697;28;20967;-69
2022/07/25 11:01:23;;;;;;;11.13;10.02;;;26.30;63.30;;;;;;4993242;28;20399;-69
2022/07/25 11:03:50;;;;;;;11.65;10.65;;;26.30;63.20;;;;;;4988602;28;20409;-70
2022/07/25 11:06:28;;;;;;;11.70;10.60;;;26.30;63.10;;;;;;4993493;28;20390;-70
2022/07/25 11:08:56;;;;;;;11.80;10.70;;;26.30;63.10;;;;;;4993359;28;20401;-69
2022/07/25 11:11:46;;;;;;;11.98;10.88;;;26.30;63.10;;;;;;4989483;28;20405;-69
2022/07/25 11:14:24;;;;;;;11.50;10.40;;;26.30;63.10;;;;;;4988234;28;20429;-68
2022/07/25 11:16:52;;;;;;;11.63;10.52;;;26.30;63.10;;;;;;4985591;28;20435;-69
2022/07/25 11:19:25;;;;;;;11.57;10.45;;;26.40;63.10;;;;;;4985058;28;21121;-69
2022/07/25 11:21:57;;;;;;;11.82;10.68;;;26.30;63.10;;;;;;4993332;28;20889;-69
2022/07/25 11:24:39;;;;;;;12.23;11.13;;;26.40;63.10;;;;;;4990242;28;20802;-69
2022/07/25 11:27:05;;;;;;;11.73;10.63;;;26.40;63.00;;;;;;4983478;28;20426;-69
2022/07/25 11:29:33;;;;;;;11.15;9.95;;;26.40;62.90;;;;;;4985207;28;20402;-69
2022/07/25 11:32:02;;;;;;;10.83;9.53;;;26.40;62.60;;;;;;4987510;28;20511;-69
2022/07/25 11:34:31;;;;;;;11.27;9.65;;;26.40;62.70;;;;;;4988147;28;20408;-69
2022/07/25 11:36:58;;;;;;;10.98;9.98;;;26.40;62.70;;;;;;4991710;28;20939;-69
2022/07/25 11:39:32;;;;;;;11.18;10.00;;;26.40;62.60;;;;;;4989848;28;20485;-70
2022/07/25 11:42:18;;;;;;;11.45;10.00;;;26.40;62.60;;;;;;4986041;28;20876;-69
2022/07/25 11:44:46;;;;;;;11.40;10.40;;;26.40;62.50;;;;;;4991169;28;20410;-69
2022/07/25 11:47:27;;;;;;;11.27;10.30;;;26.40;62.40;;;;;;4992293;28;20752;-69
2022/07/25 11:49:55;;;;;;;10.93;9.90;;;26.40;62.10;;;;;;4993281;28;20398;-69
2022/07/25 11:52:26;;;;;;;13.27;10.38;;;26.50;62.10;;;;;;4993438;28;20391;-68
2022/07/25 11:54:57;;;;;;;13.10;10.57;;;26.40;62.20;;;;;;4993571;28;20413;-69
2022/07/25 11:57:28;;;;;;;13.98;10.52;;;26.40;62.30;;;;;;4992872;28;20406;-69
2022/07/25 11:59:54;;;;;;;12.32;10.68;;;26.40;62.20;;;;;;4992974;28;20403;-68
2022/07/25 12:02:27;;;;;;;13.27;10.20;;;26.50;62.20;;;;;;4991570;28;20837;-68
2022/07/25 12:04:54;;;;;;;12.63;10.48;;;26.50;62.20;;;;;;4992123;28;20403;-69
2022/07/25 12:07:20;;;;;;;11.88;10.68;;;26.50;62.20;;;;;;4992418;28;20394;-69
2022/07/25 12:09:55;;;;;;;10.77;9.68;;;26.50;62.30;;;;;;4993040;28;20453;-69
2022/07/25 12:12:20;;;;;;;11.13;9.67;;;26.50;62.20;;;;;;4992396;28;20395;-69
2022/07/25 12:14:46;;;;;;;10.25;9.25;;;26.50;62.30;;;;;;4992682;28;20405;-69
2022/07/25 12:17:12;;;;;;;12.20;10.03;;;26.50;62.30;;;;;;4992071;28;20453;-68
2022/07/25 12:19:39;;;;;;;13.33;10.30;;;26.50;62.20;;;;;;4992459;28;20572;-69
2022/07/25 12:22:05;;;;;;;10.93;9.52;;;26.60;62.30;;;;;;4992428;28;20395;-69
2022/07/25 12:24:31;;;;;;;10.77;9.67;;;26.60;62.30;;;;;;4992799;28;20885;-69
2022/07/25 12:26:56;;;;;;;11.47;9.70;;;26.50;62.30;;;;;;4992630;28;20415;-69
2022/07/25 12:29:22;;;;;;;11.40;9.88;;;26.60;62.40;;;;;;4992299;28;20405;-69
2022/07/25 12:31:48;;;;;;;11.47;9.80;;;26.60;62.40;;;;;;4992465;28;20395;-69